Time;durP1;ratioP1;P1;durP2;ratioP2;P2;SDS_P1;SDS_P2;PMS_P1;PMS_P2;Temp;Humidity;BMP_temperature;BMP_pressure;BME280_temperature;BME280_humidity;BME280_pressure;Samples;Min_cycle;Max_cycle;Signal;HPM_P1;HPM_P2
2021/12/14 00:01:45;;;;;;;29.40;20.98;;;;;;;;;;4978222;28;20375;-79
2021/12/14 00:04:17;;;;;;;29.65;19.20;;;;;;;;;;4985163;28;20143;-79
2021/12/14 00:06:44;;;;;;;26.98;20.02;;;;;;;;;;4978165;28;20517;-81
2021/12/14 00:09:21;;;;;;;24.50;17.83;;;;;;;;;;4978291;28;20057;-80
2021/12/14 00:11:55;;;;;;;28.95;18.80;;;;;;;;;;4991767;28;20054;-80
2021/12/14 00:17:09;;;;;;;25.45;18.98;;;;;;;;;;4982593;28;20053;-80
2021/12/14 00:19:35;;;;;;;24.45;18.10;;;;;;;;;;4980941;28;20066;-81
2021/12/14 00:22:07;;;;;;;29.15;20.58;;;;;;;;;;4974473;28;20144;-80
2021/12/14 00:24:34;;;;;;;27.02;19.88;;;;;;;;;;4985039;28;20058;-81
2021/12/14 00:27:03;;;;;;;26.63;18.73;;;;;;;;;;4974257;28;20052;-80
2021/12/14 00:29:33;;;;;;;25.73;18.95;;;;;;;;;;4978138;28;20046;-81
2021/12/14 00:32:02;;;;;;;30.67;20.30;;;;;;;;;;4982660;28;20043;-79
2021/12/14 00:34:38;;;;;;;26.45;18.23;;;;;;;;;;4977597;28;20112;-80
2021/12/14 00:37:15;;;;;;;26.48;16.40;;;;;;;;;;4982484;28;20039;-80
2021/12/14 00:39:42;;;;;;;25.88;17.98;;;;;;;;;;4957863;28;20043;-81
2021/12/14 00:42:08;;;;;;;30.05;20.25;;;;;;;;;;4979239;28;20039;-81
2021/12/14 00:44:34;;;;;;;28.92;19.55;;;;;;;;;;4973017;28;20129;-81
2021/12/14 00:47:01;;;;;;;25.00;17.42;;;;;;;;;;4981779;28;20082;-80
2021/12/14 00:49:27;;;;;;;25.38;18.63;;;;;;;;;;4977464;28;20062;-80
2021/12/14 00:51:54;;;;;;;25.17;19.20;;;;;;;;;;4977875;28;20049;-81
2021/12/14 00:54:20;;;;;;;25.90;18.52;;;;;;;;;;4978533;28;20406;-82
2021/12/14 00:56:47;;;;;;;29.40;19.10;;;;;;;;;;4975727;28;20035;-81
2021/12/14 00:59:14;;;;;;;25.60;18.05;;;;;;;;;;4978471;28;20074;-81
2021/12/14 01:01:43;;;;;;;28.08;15.75;;;;;;;;;;4970027;28;20042;-81
2021/12/14 01:04:14;;;;;;;22.50;16.77;;;;;;;;;;4972976;28;20051;-81
2021/12/14 01:06:45;;;;;;;24.17;17.85;;;;;;;;;;4994858;28;20050;-82
2021/12/14 01:09:12;;;;;;;25.48;16.85;;;;;;;;;;4985112;28;22021;-81
2021/12/14 01:11:42;;;;;;;24.98;18.45;;;;;;;;;;4974415;28;20078;-81
2021/12/14 01:14:24;;;;;;;24.55;17.83;;;;;;;;;;4981916;28;20060;-81
2021/12/14 01:17:08;;;;;;;24.25;17.23;;;;;;;;;;4976810;28;20050;-81
2021/12/14 01:19:36;;;;;;;26.63;18.60;;;;;;;;;;4977710;28;20120;-81
2021/12/14 01:22:19;;;;;;;26.40;16.60;;;;;;;;;;4967655;28;20033;-81
2021/12/14 01:27:17;;;;;;;23.45;17.05;;;;;;;;;;4977726;28;20074;-80
2021/12/14 01:29:46;;;;;;;24.20;17.30;;;;;;;;;;4974214;28;20035;-81
2021/12/14 01:32:12;;;;;;;26.80;16.42;;;;;;;;;;4980138;28;20050;-82
2021/12/14 01:34:39;;;;;;;22.58;16.77;;;;;;;;;;4982704;28;20047;-81
2021/12/14 01:37:08;;;;;;;25.52;15.90;;;;;;;;;;4962017;28;20057;-81
2021/12/14 01:39:48;;;;;;;26.88;18.08;;;;;;;;;;4973706;28;20046;-80
2021/12/14 01:42:20;;;;;;;24.08;16.52;;;;;;;;;;4955578;28;20100;-81
2021/12/14 01:44:46;;;;;;;24.65;17.52;;;;;;;;;;4976354;28;20073;-81
2021/12/14 01:47:14;;;;;;;22.05;15.98;;;;;;;;;;4982850;28;20054;-80
2021/12/14 01:49:40;;;;;;;22.35;16.75;;;;;;;;;;4980551;28;20565;-81
2021/12/14 01:52:09;;;;;;;23.20;15.90;;;;;;;;;;4961712;28;20035;-80
2021/12/14 01:54:38;;;;;;;23.05;13.77;;;;;;;;;;4977411;28;20060;-79
2021/12/14 01:57:07;;;;;;;25.52;16.00;;;;;;;;;;4965097;28;20045;-81
2021/12/14 01:59:38;;;;;;;23.95;17.15;;;;;;;;;;4980921;28;20561;-81
2021/12/14 02:02:22;;;;;;;19.63;15.82;;;;;;;;;;4973945;28;20039;-82
2021/12/14 02:04:50;;;;;;;24.75;16.30;;;;;;;;;;4969044;28;20204;-81
2021/12/14 02:07:17;;;;;;;21.45;15.88;;;;;;;;;;4977653;28;20065;-82
2021/12/14 02:09:44;;;;;;;24.52;15.85;;;;;;;;;;4976767;28;20034;-80
2021/12/14 02:12:13;;;;;;;21.88;15.32;;;;;;;;;;4976215;28;20038;-81
2021/12/14 02:14:40;;;;;;;22.83;16.35;;;;;;;;;;4972882;28;20399;-81
2021/12/14 02:17:07;;;;;;;22.30;15.55;;;;;;;;;;4972825;28;20041;-81
2021/12/14 02:19:34;;;;;;;26.45;17.60;;;;;;;;;;4963838;28;20078;-82
2021/12/14 02:22:01;;;;;;;25.52;18.00;;;;;;;;;;4974998;28;20070;-81
2021/12/14 02:24:29;;;;;;;27.25;17.83;;;;;;;;;;4975911;28;20043;-82
2021/12/14 02:26:55;;;;;;;34.58;20.92;;;;;;;;;;4977985;28;20085;-82
2021/12/14 02:29:21;;;;;;;28.35;19.90;;;;;;;;;;4975111;28;20330;-81
2021/12/14 02:31:47;;;;;;;27.80;19.75;;;;;;;;;;4982893;28;20054;-82
2021/12/14 02:34:13;;;;;;;30.05;20.05;;;;;;;;;;4978991;28;20125;-81
2021/12/14 02:36:41;;;;;;;31.13;21.02;;;;;;;;;;4973482;28;20082;-81
2021/12/14 02:39:22;;;;;;;27.50;18.95;;;;;;;;;;4973389;28;20079;-81
2021/12/14 02:41:50;;;;;;;30.50;20.50;;;;;;;;;;4994155;28;20491;-81
2021/12/14 02:44:16;;;;;;;36.13;22.10;;;;;;;;;;4968514;28;20050;-82
2021/12/14 02:46:46;;;;;;;33.22;21.40;;;;;;;;;;4973668;28;20077;-81
2021/12/14 02:49:14;;;;;;;36.50;23.42;;;;;;;;;;4977403;28;20050;-81
2021/12/14 02:51:45;;;;;;;34.55;23.60;;;;;;;;;;4973726;28;20121;-81
2021/12/14 02:54:16;;;;;;;33.65;23.05;;;;;;;;;;4976429;28;20535;-81
2021/12/14 02:56:43;;;;;;;33.88;22.88;;;;;;;;;;4980123;28;20046;-81
2021/12/14 02:59:14;;;;;;;38.40;25.10;;;;;;;;;;4962084;28;20046;-81
2021/12/14 03:01:42;;;;;;;39.28;25.67;;;;;;;;;;4988839;28;20097;-81
2021/12/14 03:04:09;;;;;;;28.42;19.13;;;;;;;;;;4978376;28;20165;-81
2021/12/14 03:06:46;;;;;;;34.53;24.25;;;;;;;;;;4982347;28;20101;-81
2021/12/14 03:09:36;;;;;;;35.22;23.10;;;;;;;;;;4982649;28;20097;-81
2021/12/14 03:12:05;;;;;;;39.28;24.98;;;;;;;;;;4978393;28;20101;-81
2021/12/14 03:14:31;;;;;;;39.72;26.38;;;;;;;;;;4964892;28;20042;-82
2021/12/14 03:16:57;;;;;;;38.92;24.92;;;;;;;;;;4975830;28;20499;-82
2021/12/14 03:19:23;;;;;;;36.92;22.40;;;;;;;;;;4975283;28;20126;-81
2021/12/14 03:21:50;;;;;;;38.70;24.52;;;;;;;;;;4976884;28;20145;-81
2021/12/14 03:24:18;;;;;;;32.42;21.75;;;;;;;;;;4978615;28;20398;-81
2021/12/14 03:26:46;;;;;;;35.60;25.15;;;;;;;;;;4974814;28;20054;-81
2021/12/14 03:29:14;;;;;;;36.88;24.58;;;;;;;;;;4982487;28;20514;-81
2021/12/14 03:31:42;;;;;;;41.63;25.90;;;;;;;;;;4966400;28;20043;-81
2021/12/14 03:34:10;;;;;;;33.80;20.98;;;;;;;;;;4977500;28;20061;-82
2021/12/14 03:36:38;;;;;;;37.60;24.33;;;;;;;;;;4973207;28;20050;-80
2021/12/14 03:39:10;;;;;;;41.90;25.83;;;;;;;;;;4991870;28;20806;-80
2021/12/14 03:41:39;;;;;;;37.40;23.85;;;;;;;;;;4978262;28;20042;-80
2021/12/14 03:44:05;;;;;;;39.75;26.48;;;;;;;;;;4996268;28;20504;-80
2021/12/14 03:46:34;;;;;;;38.58;25.65;;;;;;;;;;4984660;28;20109;-80
2021/12/14 03:49:01;;;;;;;35.78;24.17;;;;;;;;;;4975882;28;20043;-80
2021/12/14 03:51:27;;;;;;;39.85;27.25;;;;;;;;;;4975460;28;20057;-80
2021/12/14 03:53:54;;;;;;;39.80;25.88;;;;;;;;;;4976448;28;20081;-80
2021/12/14 03:56:21;;;;;;;37.45;25.02;;;;;;;;;;4979257;28;20061;-80
2021/12/14 03:58:47;;;;;;;39.47;25.05;;;;;;;;;;4984547;28;20122;-80
2021/12/14 04:01:15;;;;;;;39.40;24.52;;;;;;;;;;4985331;28;20053;-80
2021/12/14 04:03:43;;;;;;;38.22;24.17;;;;;;;;;;4973802;28;20053;-80
2021/12/14 04:06:09;;;;;;;38.72;22.70;;;;;;;;;;4974191;28;20153;-79
2021/12/14 04:08:36;;;;;;;41.85;25.55;;;;;;;;;;4983420;28;20046;-80
2021/12/14 04:11:03;;;;;;;39.05;24.35;;;;;;;;;;4974906;28;20097;-80
2021/12/14 04:13:32;;;;;;;40.55;25.05;;;;;;;;;;4979582;28;20049;-80
2021/12/14 04:15:58;;;;;;;35.55;23.50;;;;;;;;;;4982548;28;20102;-80
2021/12/14 04:18:25;;;;;;;41.60;26.50;;;;;;;;;;4978014;28;21054;-80
2021/12/14 04:20:55;;;;;;;43.38;26.38;;;;;;;;;;4968370;28;20062;-81
2021/12/14 04:23:24;;;;;;;40.97;26.45;;;;;;;;;;4967961;28;20046;-82
2021/12/14 04:25:51;;;;;;;36.15;21.95;;;;;;;;;;4974097;28;20041;-80
2021/12/14 04:28:21;;;;;;;42.35;25.52;;;;;;;;;;4973679;28;20038;-81
2021/12/14 04:30:47;;;;;;;42.13;28.13;;;;;;;;;;4981923;28;20127;-81
2021/12/14 04:33:15;;;;;;;39.40;25.77;;;;;;;;;;4969939;28;20047;-81
2021/12/14 04:35:43;;;;;;;45.28;28.40;;;;;;;;;;4981466;28;20150;-81
2021/12/14 04:38:24;;;;;;;48.45;29.33;;;;;;;;;;4976252;28;20129;-80
2021/12/14 04:52:00;;;;;;;42.60;28.77;;;;;;;;;;4995204;28;20121;-82
2021/12/14 04:54:31;;;;;;;35.00;21.73;;;;;;;;;;4975786;28;20054;-82
2021/12/14 04:56:58;;;;;;;40.65;27.58;;;;;;;;;;4977749;28;20077;-81
2021/12/14 04:59:29;;;;;;;47.95;29.55;;;;;;;;;;4978518;28;20046;-81
2021/12/14 05:02:00;;;;;;;51.00;29.83;;;;;;;;;;4983912;28;20046;-81
2021/12/14 05:04:27;;;;;;;50.67;29.50;;;;;;;;;;4981113;28;20142;-80
2021/12/14 05:07:02;;;;;;;44.63;29.35;;;;;;;;;;4977010;28;20089;-80
2021/12/14 05:09:30;;;;;;;46.58;27.15;;;;;;;;;;4981001;28;20050;-81
2021/12/14 05:12:22;;;;;;;42.10;27.85;;;;;;;;;;4982872;28;20039;-81
2021/12/14 05:14:49;;;;;;;49.95;29.23;;;;;;;;;;4965165;28;20152;-81
2021/12/14 05:17:17;;;;;;;43.75;28.33;;;;;;;;;;4976264;28;20081;-80
2021/12/14 05:19:45;;;;;;;43.83;27.50;;;;;;;;;;4967854;28;20133;-80
2021/12/14 05:22:16;;;;;;;43.40;29.08;;;;;;;;;;4968186;28;20500;-80
2021/12/14 05:24:45;;;;;;;46.05;29.75;;;;;;;;;;4972880;28;20027;-80
2021/12/14 05:27:15;;;;;;;47.10;30.85;;;;;;;;;;4970823;28;20380;-81
2021/12/14 05:29:41;;;;;;;56.28;32.05;;;;;;;;;;4975701;28;20101;-81
2021/12/14 05:32:08;;;;;;;48.90;28.30;;;;;;;;;;4974827;28;20057;-80
2021/12/14 05:34:36;;;;;;;46.28;30.25;;;;;;;;;;4979307;28;20472;-80
2021/12/14 05:37:03;;;;;;;47.58;28.60;;;;;;;;;;4973561;28;20057;-80
2021/12/14 05:44:33;;;;;;;49.88;31.33;;;;;;;;;;4975079;28;20051;-81
2021/12/14 05:47:01;;;;;;;46.45;30.20;;;;;;;;;;4966437;28;20054;-80
2021/12/14 05:49:28;;;;;;;46.95;30.67;;;;;;;;;;4967781;28;20767;-80
2021/12/14 05:51:55;;;;;;;48.67;31.80;;;;;;;;;;4970558;28;20074;-80
2021/12/14 05:54:28;;;;;;;52.17;32.17;;;;;;;;;;4973824;28;20042;-80
2021/12/14 05:56:56;;;;;;;44.83;30.03;;;;;;;;;;4974675;28;20047;-81
2021/12/14 05:59:23;;;;;;;53.55;32.72;;;;;;;;;;4979405;28;20038;-80
2021/12/14 06:01:50;;;;;;;49.50;31.42;;;;;;;;;;4977223;28;20383;-79
2021/12/14 06:04:16;;;;;;;55.30;32.33;;;;;;;;;;4974408;28;20035;-80
2021/12/14 06:06:52;;;;;;;53.65;31.30;;;;;;;;;;4967937;28;20089;-80
2021/12/14 06:09:23;;;;;;;50.72;31.35;;;;;;;;;;4983759;28;20034;-80
2021/12/14 06:11:50;;;;;;;52.40;34.38;;;;;;;;;;4980552;28;20483;-79
2021/12/14 06:14:27;;;;;;;54.58;28.80;;;;;;;;;;4984860;28;20135;-80
2021/12/14 06:17:01;;;;;;;48.10;29.65;;;;;;;;;;4982813;28;20056;-81
2021/12/14 06:19:27;;;;;;;;;;;;;;;;;;4985647;28;20050;-81
2021/12/14 06:22:02;;;;;;;52.47;32.95;;;;;;;;;;4982258;28;20301;-81
2021/12/14 06:24:30;;;;;;;56.38;33.65;;;;;;;;;;4962241;28;20074;-81
2021/12/14 06:26:57;;;;;;;54.78;33.00;;;;;;;;;;4964553;28;20051;-82
2021/12/14 06:29:25;;;;;;;51.25;32.45;;;;;;;;;;4965390;28;20097;-82
2021/12/14 06:31:51;;;;;;;59.55;34.05;;;;;;;;;;4980840;28;20116;-82
2021/12/14 06:34:27;;;;;;;61.65;36.50;;;;;;;;;;4965647;28;20046;-82
2021/12/14 06:37:02;;;;;;;52.95;33.63;;;;;;;;;;4996150;28;20042;-82
2021/12/14 06:39:29;;;;;;;65.30;37.25;;;;;;;;;;4956408;28;20051;-82
2021/12/14 06:42:05;;;;;;;62.63;37.08;;;;;;;;;;4969717;28;20046;-83
2021/12/14 06:44:31;;;;;;;66.78;36.70;;;;;;;;;;4976680;28;20049;-83
2021/12/14 06:46:57;;;;;;;60.45;35.00;;;;;;;;;;4973283;28;20544;-82
2021/12/14 06:49:24;;;;;;;55.25;34.30;;;;;;;;;;4996793;28;20518;-81
2021/12/14 06:51:51;;;;;;;61.97;35.90;;;;;;;;;;4983742;28;20084;-81
2021/12/14 06:54:22;;;;;;;58.08;35.20;;;;;;;;;;4983875;28;20058;-83
2021/12/14 06:56:49;;;;;;;65.55;37.17;;;;;;;;;;4993256;28;20137;-81
2021/12/14 06:59:16;;;;;;;63.72;37.08;;;;;;;;;;4988869;28;20046;-82
2021/12/14 07:01:44;;;;;;;69.68;38.00;;;;;;;;;;4986150;28;20049;-82
2021/12/14 07:04:12;;;;;;;62.35;36.58;;;;;;;;;;4985766;28;20065;-82
2021/12/14 07:06:38;;;;;;;56.65;33.20;;;;;;;;;;4994637;28;20502;-82
2021/12/14 07:09:07;;;;;;;63.92;37.20;;;;;;;;;;4982004;28;20054;-83
2021/12/14 07:11:33;;;;;;;52.33;32.40;;;;;;;;;;4983649;28;20466;-81
2021/12/14 07:14:00;;;;;;;56.38;35.78;;;;;;;;;;4982785;28;20061;-82
2021/12/14 07:16:32;;;;;;;61.72;37.42;;;;;;;;;;4985043;28;20042;-83
2021/12/14 07:19:03;;;;;;;56.92;34.75;;;;;;;;;;4983341;28;20077;-82
2021/12/14 07:21:49;;;;;;;59.42;35.03;;;;;;;;;;4963207;28;20070;-82
2021/12/14 07:24:21;;;;;;;57.47;34.03;;;;;;;;;;4966121;28;20054;-82
2021/12/14 07:26:48;;;;;;;66.13;37.72;;;;;;;;;;4966615;28;20057;-82
2021/12/14 07:29:22;;;;;;;64.22;36.50;;;;;;;;;;4994912;28;20049;-82
2021/12/14 07:31:48;;;;;;;61.27;35.03;;;;;;;;;;5005244;28;20144;-82
2021/12/14 07:34:14;;;;;;;57.58;34.78;;;;;;;;;;4992280;28;20302;-82
2021/12/14 07:36:40;;;;;;;67.60;37.13;;;;;;;;;;4972779;28;20095;-82
2021/12/14 07:39:12;;;;;;;59.03;35.88;;;;;;;;;;4982848;28;20073;-82
2021/12/14 07:41:46;;;;;;;58.92;32.88;;;;;;;;;;4986916;28;20084;-83
2021/12/14 07:44:20;;;;;;;60.92;36.65;;;;;;;;;;4979639;28;20062;-82
2021/12/14 07:47:00;;;;;;;67.90;39.15;;;;;;;;;;4987241;28;20110;-82
2021/12/14 07:49:39;;;;;;;67.82;38.75;;;;;;;;;;4986973;28;20074;-82
2021/12/14 07:52:08;;;;;;;59.42;37.42;;;;;;;;;;4984806;28;20085;-82
2021/12/14 07:54:37;;;;;;;66.93;39.03;;;;;;;;;;4988009;28;20623;-83
2021/12/14 07:57:06;;;;;;;69.00;37.60;;;;;;;;;;4985806;28;20467;-82
2021/12/14 07:59:40;;;;;;;69.13;38.72;;;;;;;;;;4987551;28;20105;-82
2021/12/14 08:02:20;;;;;;;61.22;34.58;;;;;;;;;;4987412;28;20761;-82
2021/12/14 08:05:04;;;;;;;76.60;40.47;;;;;;;;;;4991697;28;20054;-82
2021/12/14 08:07:36;;;;;;;68.85;34.13;;;;;;;;;;4987576;28;20070;-82
2021/12/14 08:10:06;;;;;;;59.80;33.95;;;;;;;;;;4987188;28;20045;-82
2021/12/14 08:12:36;;;;;;;57.63;32.10;;;;;;;;;;4985677;28;20093;-82
2021/12/14 08:15:11;;;;;;;63.80;34.15;;;;;;;;;;4957886;28;20053;-82
2021/12/14 08:17:38;;;;;;;67.20;36.17;;;;;;;;;;4983526;28;20058;-82
2021/12/14 08:20:09;;;;;;;75.72;40.08;;;;;;;;;;4971258;28;20133;-82
2021/12/14 08:22:36;;;;;;;73.85;39.35;;;;;;;;;;4969582;28;20057;-83
2021/12/14 08:25:05;;;;;;;77.43;39.75;;;;;;;;;;4993225;28;20146;-83
2021/12/14 08:27:31;;;;;;;77.10;39.20;;;;;;;;;;4967100;28;20097;-83
2021/12/14 08:29:59;;;;;;;70.65;38.92;;;;;;;;;;4982559;28;20077;-83
2021/12/14 08:32:28;;;;;;;76.18;40.00;;;;;;;;;;4972277;28;20038;-83
2021/12/14 08:34:56;;;;;;;76.07;38.95;;;;;;;;;;4975038;28;20098;-83
2021/12/14 08:37:34;;;;;;;70.57;37.90;;;;;;;;;;4992723;28;20411;-84
2021/12/14 08:40:04;;;;;;;80.68;41.38;;;;;;;;;;4978601;28;20049;-83
2021/12/14 08:42:41;;;;;;;78.30;41.47;;;;;;;;;;4973249;28;20038;-81
2021/12/14 08:45:25;;;;;;;83.43;40.88;;;;;;;;;;4970042;28;20061;-82
2021/12/14 08:47:54;;;;;;;66.97;36.30;;;;;;;;;;4967762;28;20062;-83
2021/12/14 08:50:20;;;;;;;73.30;39.45;;;;;;;;;;4978124;28;20050;-83
2021/12/14 08:52:46;;;;;;;75.80;38.50;;;;;;;;;;4987479;28;20411;-83
2021/12/14 08:55:14;;;;;;;83.03;43.22;;;;;;;;;;4989683;28;20045;-82
2021/12/14 08:57:41;;;;;;;72.35;35.90;;;;;;;;;;4988884;28;20051;-83
2021/12/14 09:00:19;;;;;;;79.75;38.63;;;;;;;;;;4973521;28;20047;-83
2021/12/14 09:02:46;;;;;;;81.82;38.42;;;;;;;;;;4970223;28;20043;-83
2021/12/14 09:05:35;;;;;;;75.40;39.00;;;;;;;;;;4969410;28;20054;-82
2021/12/14 09:08:01;;;;;;;80.18;39.85;;;;;;;;;;4962915;28;20430;-84
2021/12/14 09:10:30;;;;;;;89.63;42.00;;;;;;;;;;4970384;28;20645;-84
2021/12/14 09:12:59;;;;;;;97.82;42.05;;;;;;;;;;4969882;28;20076;-84
2021/12/14 09:15:30;;;;;;;90.97;40.53;;;;;;;;;;4969425;28;20421;-83
2021/12/14 09:17:57;;;;;;;105.05;43.25;;;;;;;;;;4969749;28;20046;-83
2021/12/14 09:20:35;;;;;;;97.90;39.50;;;;;;;;;;4989379;28;20046;-83
2021/12/14 09:23:04;;;;;;;97.53;42.33;;;;;;;;;;4986619;28;20049;-83
2021/12/14 09:25:30;;;;;;;106.18;46.42;;;;;;;;;;4989321;28;20090;-84
2021/12/14 09:27:57;;;;;;;98.35;44.30;;;;;;;;;;4968945;28;20047;-84
2021/12/14 09:30:26;;;;;;;109.65;44.40;;;;;;;;;;4968696;28;20450;-84
2021/12/14 09:32:54;;;;;;;120.28;48.70;;;;;;;;;;4969455;28;20507;-84
2021/12/14 09:35:22;;;;;;;126.13;45.85;;;;;;;;;;4967450;28;20114;-83
2021/12/14 09:37:50;;;;;;;116.63;46.65;;;;;;;;;;4970830;28;20571;-83
2021/12/14 09:40:19;;;;;;;119.80;45.75;;;;;;;;;;4986104;28;20562;-84
2021/12/14 09:42:46;;;;;;;114.20;45.00;;;;;;;;;;4987871;28;20616;-84
2021/12/14 09:45:18;;;;;;;81.53;34.17;;;;;;;;;;4986221;28;20070;-83
2021/12/14 09:47:44;;;;;;;100.13;40.20;;;;;;;;;;4987794;28;20053;-84
2021/12/14 09:50:13;;;;;;;126.78;48.00;;;;;;;;;;4987270;28;20169;-84
2021/12/14 09:52:41;;;;;;;124.53;45.75;;;;;;;;;;4986531;28;20086;-84
2021/12/14 09:55:13;;;;;;;122.30;47.40;;;;;;;;;;4987454;28;20050;-84
2021/12/14 09:57:41;;;;;;;116.65;45.60;;;;;;;;;;4987648;28;20043;-84
2021/12/14 10:00:14;;;;;;;126.97;46.92;;;;;;;;;;4986978;28;20398;-83
2021/12/14 10:02:41;;;;;;;114.85;46.28;;;;;;;;;;4985546;28;20145;-83
2021/12/14 10:05:13;;;;;;;127.88;47.65;;;;;;;;;;4987406;28;20046;-83
2021/12/14 10:07:39;;;;;;;125.25;48.15;;;;;;;;;;4987034;28;20442;-83
2021/12/14 10:10:06;;;;;;;127.85;48.13;;;;;;;;;;4971028;28;20035;-82
2021/12/14 10:12:49;;;;;;;126.20;44.28;;;;;;;;;;4967153;28;20173;-83
2021/12/14 10:15:17;;;;;;;124.85;47.00;;;;;;;;;;4967195;28;20458;-82
2021/12/14 10:17:44;;;;;;;125.80;49.50;;;;;;;;;;4978164;28;20549;-82
2021/12/14 10:20:12;;;;;;;126.53;47.40;;;;;;;;;;4987118;28;20046;-82
2021/12/14 10:22:38;;;;;;;123.25;47.22;;;;;;;;;;4986087;28;20578;-82
2021/12/14 10:25:07;;;;;;;132.70;48.42;;;;;;;;;;4984455;28;20442;-83
2021/12/14 10:27:35;;;;;;;129.10;49.05;;;;;;;;;;4986885;28;20133;-82
2021/12/14 10:30:04;;;;;;;114.05;44.35;;;;;;;;;;4986446;28;20042;-83
2021/12/14 10:32:32;;;;;;;118.68;47.72;;;;;;;;;;4985495;28;20041;-83
2021/12/14 10:35:03;;;;;;;126.45;47.95;;;;;;;;;;4986395;28;20046;-83
2021/12/14 10:37:40;;;;;;;129.48;51.33;;;;;;;;;;4969186;28;20050;-83
2021/12/14 10:43:12;;;;;;;116.18;49.72;;;;;;;;;;4961860;28;20087;-85
2021/12/14 10:45:41;;;;;;;116.00;46.45;;;;;;;;;;4968948;28;20050;-84
2021/12/14 10:48:07;;;;;;;108.07;47.10;;;;;;;;;;4970447;28;20141;-84
2021/12/14 10:50:36;;;;;;;109.18;46.40;;;;;;;;;;4972901;28;20050;-84
2021/12/14 10:53:02;;;;;;;111.47;44.17;;;;;;;;;;4971426;28;20510;-84
2021/12/14 10:55:35;;;;;;;115.43;48.10;;;;;;;;;;4982924;28;20048;-84
2021/12/14 10:58:02;;;;;;;118.00;48.92;;;;;;;;;;4991284;28;20055;-84
2021/12/14 11:00:30;;;;;;;102.97;44.80;;;;;;;;;;4969175;28;20143;-83
2021/12/14 11:03:03;;;;;;;117.20;46.67;;;;;;;;;;4968111;28;20043;-85
2021/12/14 11:05:30;;;;;;;121.57;48.38;;;;;;;;;;4983345;28;20078;-83
2021/12/14 11:07:57;;;;;;;115.35;46.45;;;;;;;;;;4979490;28;20084;-84
2021/12/14 11:10:34;;;;;;;110.15;45.22;;;;;;;;;;4987655;28;20507;-83
2021/12/14 11:13:04;;;;;;;113.32;49.33;;;;;;;;;;4986744;28;20050;-83
2021/12/14 11:15:35;;;;;;;97.82;42.03;;;;;;;;;;4977412;28;20169;-84
2021/12/14 11:18:08;;;;;;;99.53;43.47;;;;;;;;;;4987465;28;20447;-83
2021/12/14 11:20:40;;;;;;;95.95;41.88;;;;;;;;;;4976222;28;20050;-84
2021/12/14 11:23:12;;;;;;;96.32;44.85;;;;;;;;;;4981384;28;20055;-83
2021/12/14 11:25:44;;;;;;;97.97;43.08;;;;;;;;;;4978469;28;20459;-81
2021/12/14 11:28:13;;;;;;;97.07;44.05;;;;;;;;;;4971625;28;20423;-83
2021/12/14 11:30:42;;;;;;;91.75;40.88;;;;;;;;;;4974386;28;20098;-83
2021/12/14 11:33:16;;;;;;;96.72;43.65;;;;;;;;;;4986537;28;20054;-83
2021/12/14 11:35:44;;;;;;;102.80;45.08;;;;;;;;;;4987053;28;20131;-82
2021/12/14 11:38:29;;;;;;;92.50;43.00;;;;;;;;;;4987056;28;20034;-82
2021/12/14 11:40:56;;;;;;;89.45;38.97;;;;;;;;;;4985225;28;20050;-83
2021/12/14 11:43:25;;;;;;;93.00;40.92;;;;;;;;;;4986082;28;20039;-84
2021/12/14 11:45:51;;;;;;;87.47;39.60;;;;;;;;;;4980973;28;20104;-82
2021/12/14 11:48:27;;;;;;;92.60;43.33;;;;;;;;;;4987477;28;20809;-82
2021/12/14 11:50:53;;;;;;;92.53;40.95;;;;;;;;;;4978095;28;20490;-83
2021/12/14 11:53:21;;;;;;;90.10;41.45;;;;;;;;;;4983824;28;20053;-82
2021/12/14 11:55:50;;;;;;;96.03;42.58;;;;;;;;;;4987552;28;20050;-82
2021/12/14 11:58:19;;;;;;;92.38;42.85;;;;;;;;;;4983657;28;20453;-82
2021/12/14 12:00:52;;;;;;;89.47;38.80;;;;;;;;;;4970149;28;20126;-82
2021/12/14 12:03:38;;;;;;;84.22;38.40;;;;;;;;;;4968389;28;20090;-81
2021/12/14 12:06:08;;;;;;;99.57;41.95;;;;;;;;;;4982336;28;20056;-82
2021/12/14 12:11:22;;;;;;;89.00;39.25;;;;;;;;;;4972538;28;20049;-82
2021/12/14 12:13:49;;;;;;;101.75;41.65;;;;;;;;;;4971586;28;20078;-83
2021/12/14 12:16:15;;;;;;;97.63;41.78;;;;;;;;;;4979325;28;20149;-82
2021/12/14 12:19:01;;;;;;;91.75;39.30;;;;;;;;;;4983420;28;20421;-82
2021/12/14 12:21:31;;;;;;;83.65;33.25;;;;;;;;;;4999467;28;20053;-82
2021/12/14 12:23:57;;;;;;;102.72;41.22;;;;;;;;;;4975388;28;20042;-81
2021/12/14 12:26:28;;;;;;;96.53;39.08;;;;;;;;;;4984299;28;20129;-81
2021/12/14 12:28:58;;;;;;;93.35;36.75;;;;;;;;;;4982769;28;20091;-80
2021/12/14 12:31:24;;;;;;;93.30;38.38;;;;;;;;;;4979516;28;20427;-81
2021/12/14 12:33:52;;;;;;;92.15;37.35;;;;;;;;;;4984991;28;20042;-82
2021/12/14 12:36:29;;;;;;;81.68;33.95;;;;;;;;;;4969896;28;20038;-81
2021/12/14 12:38:55;;;;;;;88.00;36.63;;;;;;;;;;4981885;28;20161;-83
2021/12/14 12:41:27;;;;;;;92.45;38.20;;;;;;;;;;4982279;28;20035;-82
2021/12/14 12:43:56;;;;;;;82.47;34.10;;;;;;;;;;4981924;28;20057;-80
2021/12/14 12:46:24;;;;;;;73.00;31.20;;;;;;;;;;4988223;28;20054;-80
2021/12/14 12:48:52;;;;;;;79.82;32.60;;;;;;;;;;4986735;28;20489;-81
2021/12/14 12:51:34;;;;;;;79.80;32.67;;;;;;;;;;4986759;28;20046;-81
2021/12/14 12:54:29;;;;;;;71.35;31.48;;;;;;;;;;4971568;28;20039;-81
2021/12/14 12:57:10;;;;;;;69.35;30.23;;;;;;;;;;4984456;28;20054;-81
2021/12/14 12:59:48;;;;;;;67.53;28.00;;;;;;;;;;4977455;28;20054;-81
2021/12/14 13:02:14;;;;;;;72.18;29.50;;;;;;;;;;4973450;28;20054;-80
2021/12/14 13:04:41;;;;;;;73.57;32.28;;;;;;;;;;4984176;28;20506;-82
2021/12/14 13:07:09;;;;;;;68.97;30.08;;;;;;;;;;4981146;28;20039;-80
2021/12/14 13:09:54;;;;;;;73.53;30.33;;;;;;;;;;4982492;28;20054;-79
2021/12/14 13:12:38;;;;;;;67.80;29.45;;;;;;;;;;4978073;28;20098;-79
2021/12/14 13:15:04;;;;;;;53.88;23.88;;;;;;;;;;4971789;28;20043;-81
2021/12/14 13:17:31;;;;;;;65.03;27.98;;;;;;;;;;4971613;28;20058;-79
2021/12/14 13:20:00;;;;;;;73.20;29.88;;;;;;;;;;4980395;28;20061;-78
2021/12/14 13:22:26;;;;;;;59.90;26.75;;;;;;;;;;4971271;28;20042;-78
2021/12/14 13:24:53;;;;;;;60.63;27.05;;;;;;;;;;4983927;28;20104;-81
2021/12/14 13:27:21;;;;;;;50.70;24.05;;;;;;;;;;4978158;28;20402;-81
2021/12/14 13:29:50;;;;;;;52.03;24.67;;;;;;;;;;4985560;28;20406;-80
2021/12/14 13:32:19;;;;;;;52.30;25.38;;;;;;;;;;4985801;28;20061;-80
2021/12/14 13:34:57;;;;;;;56.00;25.25;;;;;;;;;;4986796;28;20509;-80
2021/12/14 13:37:25;;;;;;;55.53;25.42;;;;;;;;;;4986569;28;20046;-78
2021/12/14 13:39:52;;;;;;;50.97;24.35;;;;;;;;;;4972416;28;20039;-81
2021/12/14 13:42:24;;;;;;;45.17;20.52;;;;;;;;;;4985742;28;20046;-80
2021/12/14 13:44:52;;;;;;;43.72;21.52;;;;;;;;;;4974482;28;20062;-80
2021/12/14 13:47:20;;;;;;;49.60;21.73;;;;;;;;;;4984561;28;20057;-79
2021/12/14 13:49:46;;;;;;;48.08;21.70;;;;;;;;;;4968117;28;20185;-80
2021/12/14 13:52:13;;;;;;;41.78;19.98;;;;;;;;;;4967393;28;20137;-82
2021/12/14 13:54:58;;;;;;;34.72;17.15;;;;;;;;;;4968971;28;20038;-82
2021/12/14 13:57:24;;;;;;;32.97;17.73;;;;;;;;;;4969836;28;20042;-84
2021/12/14 13:59:50;;;;;;;29.88;16.73;;;;;;;;;;4980328;28;20901;-83
2021/12/14 14:02:16;;;;;;;36.50;19.50;;;;;;;;;;4976664;28;20038;-82
2021/12/14 14:04:42;;;;;;;33.50;18.60;;;;;;;;;;4977756;28;20117;-81
2021/12/14 14:07:09;;;;;;;28.55;15.68;;;;;;;;;;4974082;28;20038;-82
2021/12/14 14:09:40;;;;;;;27.92;15.68;;;;;;;;;;4991214;28;20495;-81
2021/12/14 14:12:09;;;;;;;28.67;16.83;;;;;;;;;;4983047;28;20511;-79
2021/12/14 14:14:38;;;;;;;25.35;14.13;;;;;;;;;;4968820;28;20053;-81
2021/12/14 14:17:05;;;;;;;32.85;16.85;;;;;;;;;;4968416;28;20546;-80
2021/12/14 14:19:33;;;;;;;31.13;17.30;;;;;;;;;;4984606;28;20410;-80
2021/12/14 14:22:03;;;;;;;29.45;16.02;;;;;;;;;;4964194;28;20049;-82
2021/12/14 14:24:31;;;;;;;31.27;16.42;;;;;;;;;;4976295;28;20042;-81
2021/12/14 14:26:58;;;;;;;31.73;17.85;;;;;;;;;;4969681;28;20042;-80
2021/12/14 14:29:25;;;;;;;37.22;18.90;;;;;;;;;;4978529;28;20041;-81
2021/12/14 14:31:53;;;;;;;35.25;18.35;;;;;;;;;;4978724;28;20057;-80
2021/12/14 14:34:21;;;;;;;38.30;18.48;;;;;;;;;;4969705;28;20049;-81
2021/12/14 14:36:55;;;;;;;35.35;18.15;;;;;;;;;;4980092;28;20139;-80
2021/12/14 14:39:22;;;;;;;38.97;19.63;;;;;;;;;;4968513;28;20426;-80
2021/12/14 14:41:59;;;;;;;40.00;19.27;;;;;;;;;;4968158;28;20042;-80
2021/12/14 14:44:31;;;;;;;41.65;19.45;;;;;;;;;;4975382;28;20042;-83
2021/12/14 14:46:57;;;;;;;41.72;20.42;;;;;;;;;;4970531;28;20050;-81
2021/12/14 14:49:33;;;;;;;47.53;21.02;;;;;;;;;;4982859;28;20078;-80
2021/12/14 14:52:01;;;;;;;40.88;20.73;;;;;;;;;;4975477;28;20051;-81
2021/12/14 14:54:33;;;;;;;37.30;18.77;;;;;;;;;;4987235;28;20042;-81
2021/12/14 14:57:11;;;;;;;38.03;19.05;;;;;;;;;;4957475;28;20097;-81
2021/12/14 14:59:39;;;;;;;38.45;19.58;;;;;;;;;;4981356;28;20039;-82